ADDS TAF Data INFO
IDs: Format: Raw Decoded Include METARs

Data at: 0402 UTC 23 Sep 2017

Region: TOP
KATL 230336Z 2304/2406 11003KT P6SM SCT150
  FM231600 08006KT P6SM SCT050
  FM240000 08005KT P6SM FEW250


KBOS 230305Z 2303/2406 02015G24KT 3SM -DZ BR OVC006
  FM230800 01012G25KT P6SM OVC008
  FM231200 02010G22KT P6SM BKN003
  FM231400 02011KT P6SM BKN008
  FM231800 03008KT P6SM SCT045
  FM240200 02005KT P6SM SCT003


KBWI 222320Z 2300/2406 28003KT P6SM BKN150 BKN250

KCLE 222333Z 2300/2406 04008KT P6SM FEW250
  FM230100 VRB03KT P6SM FEW250
  FM231700 01010KT P6SM FEW250
  FM240100 VRB03KT P6SM FEW250


KCLT 222334Z 2300/2324 07003KT P6SM FEW250
  FM231600 04006KT P6SM FEW050 SCT250


KCVG 222335Z 2300/2406 07005KT P6SM SKC

KDCA 222320Z 2300/2324 36005KT P6SM SCT150 OVC250

KDEN 230304Z 2303/2406 32014KT P6SM FEW070 SCT110 BKN150
  FM230600 29007KT P6SM SCT070 BKN110
  FM231100 03010KT P6SM SCT020 BKN070
  TEMPO 2314/2318 BKN020
  FM231800 07012KT P6SM SCT025 BKN050
  TEMPO 2319/2323 -SHRA BKN025
  FM232300 04012KT P6SM -SHRA BKN020 OVC045


KDFW 230256Z 2303/2406 15012KT P6SM FEW060
  FM231700 14013KT P6SM SCT060 BKN120


KDTW 230259Z 2303/2406 00000KT P6SM SCT250
  FM230800 VRB03KT 4SM BR SKC
  TEMPO 2310/2312 2SM BR
  FM231300 13005KT P6SM SCT250


KEWR 230213Z 2302/2406 36012KT P6SM FEW030 FEW050
  FM230800 35009KT P6SM FEW030 FEW050
  FM231400 35011KT P6SM FEW030 FEW250
  FM231700 35008KT P6SM FEW250
  FM240000 35005KT P6SM FEW250


KFLL 230323Z 2303/2324 04010KT P6SM SCT020 BKN050
  FM231200 05008KT P6SM VCSH SCT025 BKN050
  PROB30 2312/2318 04015G25KT 4SM TSRA BKN020CB
  FM231800 06012KT P6SM VCSH SCT025 BKN050


KIAD 222320Z 2300/2406 32004KT P6SM BKN250

KIAH 230359Z 2304/2406 13004KT P6SM SKC
  FM230700 00000KT P6SM SKC
  TEMPO 2309/2313 MIFG
  FM231500 11007KT P6SM SCT030
  FM232100 14007KT P6SM SCT040
  FM240100 13003KT P6SM SKC


KJFK 230213Z 2302/2406 36013KT P6SM FEW030 SCT050
  FM231000 35009KT P6SM FEW030 SCT050
  FM231400 35011KT P6SM FEW030 FEW250
  FM231700 35008KT P6SM FEW250
  FM240000 35005KT P6SM FEW250


KLAS 230249Z 2303/2406 34008KT P6SM FEW120
  FM230900 34011G16KT P6SM BKN120
  FM232000 03008KT P6SM FEW120
  FM240500 20005KT P6SM SKC


KLAX 230257Z 2303/2406 26015KT P6SM FEW040
  FM230500 25007KT P6SM SKC
  FM230800 VRB04KT P6SM SKC
  FM231500 10006KT P6SM SCT020
  FM232000 25011KT P6SM SKC
  FM240300 26007KT P6SM SKC


KLGA 230213Z 2302/2324 36012KT P6SM FEW030 SCT050
  FM231000 35009KT P6SM FEW030 SCT050
  FM231400 35011KT P6SM FEW030 FEW250
  FM231700 35008KT P6SM FEW250


KMCO 230300Z 2303/2324 08006KT P6SM SCT025 SCT035 BKN250
  TEMPO 2303/2307 BKN030
  FM231400 06008KT P6SM VCSH SCT030 SCT150 BKN250
  FM231800 07012G18KT P6SM VCTS SCT040CB BKN060 BKN250


KMDW 230254Z 2303/2324 12006KT P6SM SKC
  FM230900 18003KT 6SM HZ SKC
  FM231400 21005KT P6SM FEW045
  FM231700 14008KT P6SM FEW050


KMEM 230301Z 2303/2324 VRB04KT P6SM SKC
  FM231600 06005KT P6SM SCT050


KMIA 230323Z 2303/2324 03005KT P6SM SCT020 BKN050
  FM231200 05008KT P6SM VCSH SCT025 BKN050
  PROB30 2312/2318 04015G25KT 4SM TSRA BKN020CB
  FM231800 06012KT P6SM VCSH SCT025 BKN050


KMSP 230321Z 2303/2406 18014KT P6SM BKN150 WS020/21050KT
  FM230700 18009KT P6SM SCT120 BKN250
  FM231700 18010KT P6SM SCT050


KORD 230254Z 2303/2406 15006KT P6SM SKC
  FM230900 VRB03KT 6SM HZ SKC
  FM231400 21005KT P6SM FEW045
  FM231800 11009KT P6SM FEW050
  FM240200 VRB03KT P6SM SCT250


KPDX 230254Z 2303/2324 VRB02KT P6SM SCT100 BKN200
  FM230500 VRB03KT P6SM SCT100
  FM231200 VRB02KT P6SM OVC018
  FM231800 VRB03KT P6SM SCT020 BKN090
  FM232100 VRB04KT P6SM FEW030 BKN120


KPHL 222330Z 2300/2406 34007KT P6SM SCT060
  FM230800 01005KT P6SM FEW250


KPHX 230240Z 2303/2406 28012KT P6SM SCT100 SCT250
  FM230700 VRB05KT P6SM FEW250
  FM231200 11007KT P6SM FEW250
  FM231800 26010G18KT P6SM FEW250


KPIT 230255Z 2303/2406 00000KT P6SM SCT250

KSAN 230300Z 2303/2406 VRB05KT P6SM BKN030 BKN050
  FM231700 24007KT P6SM FEW025 SCT035
  FM232000 28009KT P6SM FEW035
  FM240200 VRB05KT P6SM FEW035


KSEA 230303Z 2303/2406 20004KT P6SM BKN150 BKN200
  FM231300 18003KT P6SM SCT012 OVC080
  TEMPO 2314/2317 BKN012 OVC080
  FM231800 22004KT P6SM SCT010 BKN080
  FM232100 25004KT P6SM SCT080 SCT100


KSFO 230304Z 2303/2406 27012KT P6SM SKC
  FM230400 27010KT P6SM SKC
  FM231200 28005KT P6SM FEW015
  FM231500 VRB03KT P6SM FEW015
  FM232200 29013KT P6SM SKC
  FM240100 29016KT P6SM SKC


KSLC 230305Z 2303/2406 35005KT P6SM SCT060 BKN120
  FM230500 16004KT P6SM SCT060 BKN120
  FM231600 33006KT P6SM BKN100


KSTL 230255Z 2303/2406 VRB03KT P6SM SKC
  FM231900 11005KT P6SM FEW060


KTPA 230303Z 2303/2324 05004KT P6SM FEW250
  FM231400 06006KT P6SM SCT025 BKN250
  FM231800 07008KT P6SM VCTS BKN035CB